Time;durP1;ratioP1;P1;durP2;ratioP2;P2;SDS_P1;SDS_P2;PMS_P1;PMS_P2;Temp;Humidity;BMP_temperature;BMP_pressure;BME280_temperature;BME280_humidity;BME280_pressure;Samples;Min_cycle;Max_cycle;Signal;HPM_P1;HPM_P2
2021/11/07 00:09:11;;;;;;;20.00;17.33;;;10.40;99.90;;;;;;5062776;28;20040;-58
2021/11/07 00:11:40;;;;;;;20.15;18.05;;;10.50;99.90;;;;;;5078304;28;20074;-58
2021/11/07 00:14:08;;;;;;;20.35;18.02;;;10.40;99.90;;;;;;5073989;28;20049;-59
2021/11/07 00:16:37;;;;;;;19.67;17.65;;;10.50;99.90;;;;;;5075055;28;20087;-59
2021/11/07 00:21:39;;;;;;;22.67;17.98;;;10.50;99.90;;;;;;5067957;28;20102;-59
2021/11/07 00:24:15;;;;;;;22.38;17.13;;;10.50;99.90;;;;;;5062194;28;20395;-59
2021/11/07 00:26:56;;;;;;;22.42;18.65;;;10.60;99.90;;;;;;5061584;28;20048;-59
2021/11/07 00:29:29;;;;;;;23.33;19.25;;;10.50;99.90;;;;;;5052358;28;20075;-59
2021/11/07 00:44:37;;;;;;;20.60;18.20;;;10.50;99.90;;;;;;5051705;28;20037;-54
2021/11/07 00:47:24;;;;;;;20.70;18.58;;;10.50;99.90;;;;;;5056960;28;20080;-56
2021/11/07 00:49:56;;;;;;;19.67;17.50;;;10.50;99.90;;;;;;5051488;28;20435;-58
2021/11/07 00:55:21;;;;;;;18.00;16.23;;;10.50;99.90;;;;;;5018203;28;19952;-59
2021/11/07 00:57:59;;;;;;;22.08;17.15;;;10.50;99.90;;;;;;5042986;28;20068;-58
2021/11/07 01:00:41;;;;;;;19.00;16.77;;;10.50;99.90;;;;;;5036447;28;20419;-58
2021/11/07 01:03:13;;;;;;;17.58;15.55;;;10.50;99.90;;;;;;5002657;28;20045;-57
2021/11/07 01:05:39;;;;;;;;;;;10.50;99.90;;;;;;5027401;28;20045;-59
2021/11/07 01:08:05;;;;;;;18.10;14.68;;;10.60;99.90;;;;;;5020703;28;20712;-59
2021/11/07 01:10:34;;;;;;;20.13;16.05;;;10.50;99.90;;;;;;5024456;28;20091;-59
2021/11/07 01:13:00;;;;;;;20.45;15.75;;;10.60;99.90;;;;;;5018572;28;20139;-59
2021/11/07 01:15:28;;;;;;;21.75;13.45;;;10.50;99.90;;;;;;5006367;28;20045;-59
2021/11/07 01:17:55;;;;;;;15.52;12.80;;;10.60;99.90;;;;;;5032600;28;20404;-50
2021/11/07 01:20:26;;;;;;;17.23;13.40;;;10.60;99.90;;;;;;5017335;28;20058;-53
2021/11/07 01:25:21;;;;;;;18.10;14.43;;;10.60;99.90;;;;;;5038081;28;20052;-58
2021/11/07 01:27:48;;;;;;;21.42;15.10;;;10.60;99.90;;;;;;5017190;28;20083;-59
2021/11/07 01:30:20;;;;;;;20.58;13.77;;;10.60;99.90;;;;;;5037632;28;20531;-58
2021/11/07 01:32:52;;;;;;;16.92;13.63;;;10.60;99.90;;;;;;5047937;28;20111;-53
2021/11/07 01:40:27;;;;;;;18.42;12.35;;;10.60;99.90;;;;;;5050206;28;20088;-54
2021/11/07 01:42:55;;;;;;;19.17;12.77;;;10.70;99.90;;;;;;5043295;28;20045;-53
2021/11/07 01:45:28;;;;;;;21.02;12.23;;;10.70;99.90;;;;;;5052217;28;20048;-55
2021/11/07 01:48:05;;;;;;;22.05;11.85;;;10.70;99.90;;;;;;5033255;28;20115;-54
2021/11/07 01:50:35;;;;;;;19.65;11.05;;;10.70;99.90;;;;;;5049457;28;20472;-54
2021/11/07 01:55:46;;;;;;;22.30;12.13;;;10.80;99.90;;;;;;5050994;28;20131;-54
2021/11/07 01:58:12;;;;;;;24.88;13.32;;;10.80;99.90;;;;;;5067077;28;20041;-56
2021/11/07 02:00:39;;;;;;;21.05;12.35;;;10.80;99.90;;;;;;5055652;28;20432;-56
2021/11/07 02:03:06;;;;;;;20.05;12.05;;;10.80;99.90;;;;;;5051018;28;20516;-54
2021/11/07 02:05:32;;;;;;;24.65;11.70;;;10.80;99.90;;;;;;5050606;28;20049;-54
2021/11/07 02:07:58;;;;;;;18.98;11.02;;;10.90;99.90;;;;;;5054632;28;20043;-55
2021/11/07 02:10:24;;;;;;;21.20;10.95;;;10.90;99.90;;;;;;5062581;28;20049;-55
2021/11/07 02:12:51;;;;;;;24.25;11.55;;;10.80;99.90;;;;;;5053475;28;20071;-58
2021/11/07 02:15:20;;;;;;;22.27;11.07;;;10.80;99.90;;;;;;5055600;28;20059;-58
2021/11/07 02:17:46;;;;;;;22.50;10.07;;;10.90;99.90;;;;;;5056371;28;20469;-58
2021/11/07 02:20:20;;;;;;;25.52;11.50;;;10.90;99.90;;;;;;5057049;28;20128;-58
2021/11/07 02:22:46;;;;;;;23.65;9.73;;;10.80;99.90;;;;;;5050626;28;20068;-58
2021/11/07 02:25:12;;;;;;;21.88;9.48;;;10.80;99.90;;;;;;5062661;28;20472;-58
2021/11/07 02:27:39;;;;;;;22.20;10.05;;;10.80;99.90;;;;;;5056353;28;20037;-58
2021/11/07 02:30:06;;;;;;;19.65;9.05;;;10.80;99.90;;;;;;5065530;28;20044;-58
2021/11/07 02:32:32;;;;;;;21.27;9.70;;;10.80;99.90;;;;;;5050652;28;20076;-58
2021/11/07 02:34:59;;;;;;;22.55;9.60;;;10.80;99.90;;;;;;5055622;28;20040;-58
2021/11/07 02:37:25;;;;;;;20.33;9.63;;;10.80;99.90;;;;;;5060843;28;20044;-58
2021/11/07 02:39:51;;;;;;;26.85;9.60;;;10.80;99.90;;;;;;5058372;28;20047;-58
2021/11/07 02:42:17;;;;;;;25.13;10.95;;;10.80;99.90;;;;;;5063675;28;20040;-58
2021/11/07 02:44:45;;;;;;;27.75;9.43;;;10.80;99.90;;;;;;5059817;28;20115;-58
2021/11/07 02:47:14;;;;;;;24.73;9.38;;;10.70;99.90;;;;;;5071438;28;20056;-57
2021/11/07 02:49:41;;;;;;;26.75;9.95;;;10.70;99.90;;;;;;5054503;28;20550;-57
2021/11/07 02:52:11;;;;;;;21.83;8.18;;;10.60;99.90;;;;;;5059906;28;20064;-58
2021/11/07 02:54:39;;;;;;;21.00;7.65;;;10.60;99.90;;;;;;5050804;28;20055;-54
2021/11/07 02:57:07;;;;;;;23.38;7.57;;;10.60;99.90;;;;;;5060266;28;20400;-55
2021/11/07 02:59:37;;;;;;;23.55;7.90;;;10.50;99.90;;;;;;5048412;28;20045;-53
2021/11/07 03:02:05;;;;;;;18.10;6.43;;;10.40;99.90;;;;;;5054482;28;20102;-55
2021/11/07 03:04:32;;;;;;;24.63;7.38;;;10.30;99.90;;;;;;5057593;28;20425;-54
2021/11/07 03:06:59;;;;;;;23.38;6.53;;;10.20;99.90;;;;;;5051536;28;20040;-54
2021/11/07 03:09:28;;;;;;;21.02;6.50;;;10.20;99.90;;;;;;5047389;28;20056;-54
2021/11/07 03:11:55;;;;;;;18.40;5.88;;;10.20;99.90;;;;;;5031430;28;20041;-55
2021/11/07 03:14:27;;;;;;;19.23;5.50;;;10.10;99.90;;;;;;5049622;28;20049;-55
2021/11/07 03:16:54;;;;;;;;;;;10.00;99.90;;;;;;5050620;28;20060;-53
2021/11/07 03:19:22;;;;;;;17.80;5.35;;;10.00;99.90;;;;;;5052966;28;19924;-55
2021/11/07 03:21:51;;;;;;;23.95;6.30;;;9.90;99.90;;;;;;5049430;28;20045;-55
2021/11/07 03:24:18;;;;;;;20.48;4.85;;;9.80;99.90;;;;;;5031658;28;20448;-54
2021/11/07 03:26:45;;;;;;;21.85;6.05;;;9.80;99.90;;;;;;5031595;28;20056;-55
2021/11/07 03:29:12;;;;;;;24.58;5.65;;;9.70;99.90;;;;;;5049948;28;20051;-55
2021/11/07 03:34:17;;;;;;;23.63;5.80;;;9.60;99.90;;;;;;5049448;28;20037;-54
2021/11/07 03:36:51;;;;;;;22.05;5.97;;;9.60;99.90;;;;;;5049704;28;20052;-55
2021/11/07 03:39:19;;;;;;;22.92;5.40;;;9.60;99.90;;;;;;5034444;28;20053;-54
2021/11/07 03:41:47;;;;;;;18.08;5.00;;;9.50;99.90;;;;;;5049887;28;21119;-55
2021/11/07 03:44:15;;;;;;;29.40;6.50;;;9.40;99.90;;;;;;5048487;28;20126;-54
2021/11/07 03:46:44;;;;;;;21.30;5.38;;;9.50;99.90;;;;;;5049785;28;20408;-54
2021/11/07 03:49:11;;;;;;;26.00;6.32;;;9.50;99.90;;;;;;5064474;28;20053;-56
2021/11/07 03:51:38;;;;;;;20.70;4.47;;;9.50;99.90;;;;;;5051303;28;20041;-58
2021/11/07 03:54:06;;;;;;;22.90;4.85;;;9.60;99.90;;;;;;5051202;28;20056;-59
2021/11/07 03:56:32;;;;;;;26.00;5.07;;;9.50;99.90;;;;;;5066583;28;20052;-58
2021/11/07 03:58:59;;;;;;;22.13;4.55;;;9.50;99.90;;;;;;5049574;28;20044;-58
2021/11/07 04:01:25;;;;;;;18.55;5.22;;;9.50;99.90;;;;;;5062117;28;20053;-58
2021/11/07 04:03:51;;;;;;;23.98;5.22;;;9.50;99.90;;;;;;5051780;28;20049;-58
2021/11/07 04:06:18;;;;;;;17.98;4.75;;;9.40;99.90;;;;;;5063031;28;20062;-58
2021/11/07 04:08:45;;;;;;;19.98;4.75;;;9.40;99.90;;;;;;5064197;28;20048;-57
2021/11/07 04:11:12;;;;;;;16.63;3.88;;;9.50;99.90;;;;;;5059109;28;20049;-58
2021/11/07 04:13:39;;;;;;;24.25;5.45;;;9.50;99.90;;;;;;5048295;28;20045;-57
2021/11/07 04:16:07;;;;;;;23.15;5.57;;;9.50;99.90;;;;;;5054333;28;20475;-58
2021/11/07 04:18:34;;;;;;;27.45;4.88;;;9.50;99.90;;;;;;5056069;28;20107;-57
2021/11/07 04:21:01;;;;;;;25.10;6.38;;;9.60;99.90;;;;;;5067185;28;20040;-58
2021/11/07 04:23:27;;;;;;;21.77;4.53;;;9.50;99.90;;;;;;5055654;28;20079;-57
2021/11/07 04:25:53;;;;;;;21.75;5.00;;;9.50;99.90;;;;;;5055261;28;20029;-58
2021/11/07 04:28:20;;;;;;;18.10;5.43;;;9.50;99.90;;;;;;5036382;28;20040;-58
2021/11/07 04:30:46;;;;;;;20.58;4.57;;;9.50;99.90;;;;;;5071240;28;20051;-56
2021/11/07 04:33:14;;;;;;;23.33;4.70;;;9.40;99.90;;;;;;5061394;28;20041;-59
2021/11/07 04:35:40;;;;;;;23.17;5.53;;;9.50;99.90;;;;;;5059882;28;20055;-59
2021/11/07 04:38:06;;;;;;;18.55;5.03;;;9.50;99.90;;;;;;5050447;28;20110;-56
2021/11/07 04:40:32;;;;;;;20.08;5.43;;;9.60;99.90;;;;;;5067339;28;20492;-57
2021/11/07 04:42:59;;;;;;;21.38;5.18;;;9.50;99.90;;;;;;5060417;28;20511;-57
2021/11/07 04:45:25;;;;;;;21.10;4.78;;;9.60;99.90;;;;;;5057981;28;20049;-58
2021/11/07 04:47:51;;;;;;;26.05;5.63;;;9.60;99.90;;;;;;5052876;28;20113;-57
2021/11/07 04:50:19;;;;;;;26.20;5.72;;;9.60;99.90;;;;;;5070683;28;20094;-57
2021/11/07 04:52:45;;;;;;;20.65;4.82;;;9.60;99.90;;;;;;5052932;28;20309;-56
2021/11/07 04:55:13;;;;;;;25.42;5.65;;;9.60;99.90;;;;;;5058508;28;20048;-57
2021/11/07 04:57:42;;;;;;;27.67;5.35;;;9.60;99.90;;;;;;5071268;28;20123;-58
2021/11/07 05:00:18;;;;;;;24.70;5.32;;;9.60;99.90;;;;;;5057175;28;20052;-58
2021/11/07 05:02:47;;;;;;;19.42;4.68;;;9.60;99.90;;;;;;5053471;28;20087;-57
2021/11/07 05:05:13;;;;;;;23.80;4.93;;;9.60;99.90;;;;;;5051067;28;20503;-58
2021/11/07 05:07:39;;;;;;;22.30;5.18;;;9.60;99.90;;;;;;5023407;28;20040;-58
2021/11/07 05:10:06;;;;;;;21.20;6.18;;;9.60;99.90;;;;;;5049381;28;20037;-57
2021/11/07 05:12:32;;;;;;;22.27;5.18;;;9.60;99.90;;;;;;5041257;28;20049;-58
2021/11/07 05:14:58;;;;;;;22.42;5.13;;;9.60;99.90;;;;;;5050900;28;20037;-58
2021/11/07 05:17:24;;;;;;;24.25;5.18;;;9.60;99.90;;;;;;5043500;28;20041;-57
2021/11/07 05:19:50;;;;;;;19.75;5.05;;;9.60;99.90;;;;;;5045348;28;20041;-54
2021/11/07 05:22:16;;;;;;;26.75;6.43;;;9.50;99.90;;;;;;5040655;28;20124;-56
2021/11/07 05:24:42;;;;;;;21.10;5.03;;;9.50;99.90;;;;;;5043338;28;20034;-56
2021/11/07 05:27:09;;;;;;;18.90;4.57;;;9.50;99.90;;;;;;5051180;28;20037;-56
2021/11/07 05:29:35;;;;;;;20.15;5.32;;;9.40;99.90;;;;;;5056037;28;20079;-58
2021/11/07 05:32:01;;;;;;;20.83;4.80;;;9.30;99.90;;;;;;5053387;28;20049;-58
2021/11/07 05:34:28;;;;;;;25.63;5.13;;;9.20;99.90;;;;;;5058582;28;20048;-57
2021/11/07 05:36:54;;;;;;;15.88;4.35;;;9.20;99.90;;;;;;5056544;28;20045;-58
2021/11/07 05:39:23;;;;;;;24.08;6.07;;;9.20;99.90;;;;;;5061806;28;20071;-58
2021/11/07 05:41:49;;;;;;;22.02;4.88;;;9.20;99.90;;;;;;5064305;28;20129;-57
2021/11/07 05:44:15;;;;;;;21.77;5.63;;;9.20;99.90;;;;;;5051397;28;20484;-57
2021/11/07 05:46:45;;;;;;;19.45;5.45;;;9.10;99.90;;;;;;5059243;28;20097;-57
2021/11/07 05:49:11;;;;;;;20.67;5.75;;;9.10;99.90;;;;;;5040889;28;20044;-55
2021/11/07 05:51:37;;;;;;;25.63;5.80;;;9.10;99.90;;;;;;5058730;28;20052;-55
2021/11/07 05:54:04;;;;;;;21.05;5.68;;;9.10;99.90;;;;;;5055077;28;20124;-58
2021/11/07 05:56:31;;;;;;;25.83;5.78;;;9.10;99.90;;;;;;5053321;28;20446;-58
2021/11/07 05:58:58;;;;;;;21.98;5.32;;;9.00;99.90;;;;;;5052341;28;20411;-58
2021/11/07 06:01:24;;;;;;;19.75;5.45;;;9.00;99.90;;;;;;5052220;28;20063;-58
2021/11/07 06:03:51;;;;;;;24.63;5.63;;;9.00;99.90;;;;;;5058757;28;20052;-59
2021/11/07 06:06:18;;;;;;;22.35;5.38;;;9.00;99.90;;;;;;5056061;28;20037;-55
2021/11/07 06:08:44;;;;;;;25.10;5.45;;;9.10;99.90;;;;;;5053479;28;20073;-55
2021/11/07 06:11:11;;;;;;;21.42;5.72;;;9.10;99.90;;;;;;5056447;28;20045;-55
2021/11/07 06:13:37;;;;;;;27.75;5.60;;;9.20;99.90;;;;;;5053201;28;20041;-55
2021/11/07 06:16:03;;;;;;;17.75;4.60;;;9.20;99.90;;;;;;5055547;28;20041;-57
2021/11/07 06:18:30;;;;;;;15.43;4.00;;;9.20;99.90;;;;;;5056213;28;20040;-58
2021/11/07 06:20:57;;;;;;;21.88;4.55;;;9.20;99.90;;;;;;5058175;28;20056;-58
2021/11/07 06:23:24;;;;;;;14.75;3.28;;;9.20;99.90;;;;;;5065499;28;20121;-58
2021/11/07 06:25:50;;;;;;;12.32;3.40;;;9.10;99.90;;;;;;5040779;28;20037;-58
2021/11/07 06:28:17;;;;;;;11.68;2.90;;;9.00;99.90;;;;;;5037522;28;20044;-58
2021/11/07 06:30:45;;;;;;;16.80;3.72;;;9.00;99.90;;;;;;5057851;28;20403;-58
2021/11/07 06:33:11;;;;;;;16.02;3.03;;;8.90;99.90;;;;;;5058303;28;20067;-56
2021/11/07 06:35:37;;;;;;;12.70;2.88;;;8.80;99.90;;;;;;5052636;28;20045;-58
2021/11/07 06:38:03;;;;;;;12.65;3.22;;;8.80;99.90;;;;;;5053862;28;20136;-58
2021/11/07 06:40:30;;;;;;;13.65;3.13;;;8.70;99.90;;;;;;5040631;28;20057;-54
2021/11/07 06:42:56;;;;;;;12.20;2.80;;;8.70;99.90;;;;;;5049807;28;20071;-56
2021/11/07 06:45:22;;;;;;;13.40;3.25;;;8.70;99.90;;;;;;5048114;28;20029;-56
2021/11/07 06:47:49;;;;;;;14.57;3.10;;;8.60;99.90;;;;;;5045628;28;20484;-55
2021/11/07 06:50:15;;;;;;;14.98;3.10;;;8.60;99.90;;;;;;5047368;28;20045;-54
2021/11/07 06:52:43;;;;;;;12.32;3.55;;;8.60;99.90;;;;;;5049781;28;20036;-54
2021/11/07 06:55:11;;;;;;;18.25;4.18;;;8.70;99.90;;;;;;5052670;28;20090;-56
2021/11/07 06:57:38;;;;;;;20.70;4.03;;;8.60;99.90;;;;;;5050816;28;20037;-55
2021/11/07 07:00:09;;;;;;;19.55;4.03;;;8.70;99.90;;;;;;5048244;28;20418;-56
2021/11/07 07:02:35;;;;;;;20.95;4.15;;;8.70;99.90;;;;;;5048199;28;20033;-55
2021/11/07 07:05:03;;;;;;;17.80;4.00;;;8.60;99.90;;;;;;5050814;28;20048;-55
2021/11/07 07:07:33;;;;;;;15.55;3.88;;;8.60;99.90;;;;;;5047836;28;20041;-55
2021/11/07 07:10:01;;;;;;;15.18;2.63;;;8.60;99.90;;;;;;5046484;28;20052;-58
2021/11/07 07:12:31;;;;;;;17.08;3.92;;;8.60;99.90;;;;;;5055067;28;20055;-58
2021/11/07 07:18:21;;;;;;;21.55;4.38;;;8.70;99.90;;;;;;5053913;28;20591;-58
2021/11/07 07:23:48;;;;;;;18.17;3.83;;;8.60;99.90;;;;;;5046072;28;20127;-59
2021/11/07 07:31:30;;;;;;;14.30;2.75;;;8.40;99.90;;;;;;5062784;28;20115;-58
2021/11/07 07:34:07;;;;;;;18.85;4.03;;;8.40;99.90;;;;;;5057187;28;20036;-58
2021/11/07 07:36:34;;;;;;;18.88;3.30;;;8.40;99.90;;;;;;5057106;28;20128;-54
2021/11/07 07:39:00;;;;;;;16.02;3.60;;;8.40;99.90;;;;;;5052628;28;20060;-55
2021/11/07 07:41:27;;;;;;;18.25;4.43;;;8.40;99.90;;;;;;5051673;28;20574;-55
2021/11/07 07:43:56;;;;;;;17.85;3.88;;;8.40;99.90;;;;;;5056866;28;20116;-56
2021/11/07 07:46:22;;;;;;;19.70;3.88;;;8.40;99.90;;;;;;5056433;28;20080;-55
2021/11/07 07:48:49;;;;;;;24.23;4.55;;;8.40;99.90;;;;;;5056187;28;20037;-54
2021/11/07 07:51:18;;;;;;;17.27;3.50;;;8.50;99.90;;;;;;5027850;28;20049;-55
2021/11/07 07:53:45;;;;;;;23.42;4.70;;;8.60;99.90;;;;;;5029892;28;20037;-55
2021/11/07 07:56:13;;;;;;;15.82;4.28;;;8.60;99.90;;;;;;5031407;28;20512;-58
2021/11/07 07:58:40;;;;;;;25.40;4.22;;;8.70;99.90;;;;;;5034625;28;20087;-58
2021/11/07 08:01:07;;;;;;;14.90;3.55;;;8.70;99.90;;;;;;5043886;28;20040;-58
2021/11/07 08:03:34;;;;;;;17.58;3.47;;;8.70;99.90;;;;;;5051719;28;20045;-57
2021/11/07 08:06:00;;;;;;;19.20;4.35;;;8.60;99.90;;;;;;5054577;28;20041;-57
2021/11/07 08:08:28;;;;;;;18.85;3.35;;;8.80;99.90;;;;;;5053308;28;20079;-58
2021/11/07 08:10:54;;;;;;;14.73;3.15;;;8.70;99.90;;;;;;5053866;28;20041;-57
2021/11/07 08:13:20;;;;;;;17.70;3.67;;;8.70;99.90;;;;;;5049288;28;20049;-58
2021/11/07 08:15:46;;;;;;;21.60;4.00;;;8.70;99.90;;;;;;5052047;28;20049;-58
2021/11/07 08:18:12;;;;;;;17.65;3.50;;;8.70;99.90;;;;;;5053033;28;20041;-58
2021/11/07 08:20:42;;;;;;;14.55;3.60;;;8.80;99.90;;;;;;5038014;28;20499;-58
2021/11/07 08:23:08;;;;;;;17.95;3.90;;;9.30;99.90;;;;;;5053655;28;20034;-58
2021/11/07 08:25:34;;;;;;;16.42;3.70;;;9.90;99.90;;;;;;5053716;28;20072;-57
2021/11/07 08:28:02;;;;;;;15.90;3.05;;;10.40;99.90;;;;;;5055556;28;20044;-58
2021/11/07 08:30:30;;;;;;;13.63;3.67;;;10.70;99.90;;;;;;5054591;28;20098;-57
2021/11/07 08:32:57;;;;;;;17.33;3.78;;;10.90;99.90;;;;;;5052920;28;20045;-57
2021/11/07 08:35:23;;;;;;;14.50;3.17;;;11.20;99.90;;;;;;5049010;28;20387;-58
2021/11/07 08:38:11;;;;;;;15.80;3.55;;;11.30;99.90;;;;;;5051082;28;20052;-58
2021/11/07 08:40:57;;;;;;;18.42;3.47;;;11.60;99.90;;;;;;5049654;28;20095;-56
2021/11/07 09:00:13;;;;;;;14.55;3.72;;;11.20;99.90;;;;;;5052104;28;20063;-56
2021/11/07 09:10:36;;;;;;;16.27;2.78;;;11.80;99.90;;;;;;5066575;28;20061;-57
2021/11/07 09:13:06;;;;;;;9.93;2.92;;;12.30;99.90;;;;;;5069355;28;20086;-60
2021/11/07 09:15:35;;;;;;;11.35;2.58;;;12.90;99.90;;;;;;5051732;28;21608;-60
2021/11/07 09:18:01;;;;;;;11.82;2.72;;;13.50;99.90;;;;;;5045478;28;20079;-60
2021/11/07 09:21:22;;;;;;;12.98;2.83;;;14.00;99.90;;;;;;5049881;28;20092;-60
2021/11/07 09:23:27;;;;;;;15.65;2.70;;;14.40;99.90;;;;;;5042582;28;20099;-61
2021/11/07 09:28:33;;;;;;;8.68;2.17;;;13.90;99.90;;;;;;5044702;28;20392;-60
2021/11/07 09:31:15;;;;;;;15.23;2.75;;;14.10;99.90;;;;;;5049477;28;20518;-60
2021/11/07 09:34:05;;;;;;;11.50;2.50;;;14.40;99.90;;;;;;5051804;28;20045;-60
2021/11/07 09:36:39;;;;;;;12.30;2.85;;;14.60;99.90;;;;;;5050183;28;20453;-60
2021/11/07 09:39:17;;;;;;;11.85;3.08;;;14.70;99.90;;;;;;5047714;28;20053;-60
2021/11/07 09:44:14;;;;;;;9.38;3.15;;;14.80;99.90;;;;;;5051211;28;20033;-59
2021/11/07 09:49:24;;;;;;;14.32;3.55;;;15.20;99.90;;;;;;5049322;28;20037;-59
2021/11/07 09:52:00;;;;;;;16.40;3.10;;;15.40;99.90;;;;;;5046150;28;20040;-60
2021/11/07 09:54:29;;;;;;;13.82;3.28;;;15.30;99.90;;;;;;5045299;28;20376;-60
2021/11/07 09:56:57;;;;;;;15.13;2.95;;;15.10;99.90;;;;;;5049950;28;20053;-60
2021/11/07 09:59:25;;;;;;;16.40;3.05;;;15.60;99.90;;;;;;5051520;28;20109;-60
2021/11/07 10:01:57;;;;;;;15.48;3.10;;;16.00;99.90;;;;;;5050602;28;20044;-60
2021/11/07 10:04:26;;;;;;;16.02;3.65;;;15.30;99.90;;;;;;5046704;28;20072;-60
2021/11/07 10:06:57;;;;;;;15.38;3.50;;;15.20;99.90;;;;;;5043942;28;20048;-59
2021/11/07 10:09:36;;;;;;;14.43;3.00;;;15.10;99.90;;;;;;5045800;28;20072;-61
2021/11/07 10:12:14;;;;;;;16.20;3.42;;;15.60;99.90;;;;;;5044841;28;20049;-60
2021/11/07 10:14:47;;;;;;;15.35;3.97;;;16.20;99.90;;;;;;5047075;28;20131;-60
2021/11/07 10:17:43;;;;;;;13.90;3.65;;;16.20;99.90;;;;;;5048721;28;20052;-60
2021/11/07 10:23:05;;;;;;;15.30;3.80;;;16.50;99.90;;;;;;5002291;28;20114;-57
2021/11/07 10:25:37;;;;;;;11.05;3.03;;;16.50;94.70;;;;;;5000089;28;20240;-60
2021/11/07 10:28:21;;;;;;;9.88;2.83;;;17.20;99.90;;;;;;4993239;28;20137;-57
2021/11/07 10:31:01;;;;;;;10.40;3.00;;;17.40;90.90;;;;;;4981819;28;20100;-58
2021/11/07 10:34:30;;;;;;;11.38;2.70;;;17.80;80.10;;;;;;4992628;28;20058;-58
2021/11/07 10:37:23;;;;;;;10.98;2.75;;;17.10;79.40;;;;;;4946098;29;20062;-59
2021/11/07 10:53:52;;;;;;;13.48;3.40;;;16.80;88.80;;;;;;4949330;29;20417;-60
2021/11/07 10:56:19;;;;;;;11.63;2.88;;;16.90;80.40;;;;;;4947639;29;20082;-58
2021/11/07 10:58:50;;;;;;;13.02;2.80;;;16.80;77.10;;;;;;4946640;29;20043;-60
2021/11/07 11:01:23;;;;;;;7.85;1.98;;;17.20;80.90;;;;;;5005807;28;20134;-60
2021/11/07 11:03:54;;;;;;;15.32;3.08;;;17.30;78.90;;;;;;4989392;28;20054;-60
2021/11/07 11:06:21;;;;;;;13.30;3.35;;;17.40;76.30;;;;;;4972127;28;20050;-58
2021/11/07 11:08:54;;;;;;;13.35;3.60;;;17.20;71.90;;;;;;4979553;28;20074;-60
2021/11/07 11:11:30;;;;;;;11.02;2.15;;;16.20;74.50;;;;;;4968935;28;20050;-60
2021/11/07 11:14:11;;;;;;;13.18;3.60;;;15.30;91.00;;;;;;5015583;28;20045;-59
2021/11/07 11:17:04;;;;;;;12.98;3.10;;;15.90;91.60;;;;;;5030258;28;20050;-57
2021/11/07 11:19:46;;;;;;;14.05;3.10;;;16.40;89.90;;;;;;5030136;28;20053;-60
2021/11/07 11:22:48;;;;;;;13.25;2.78;;;16.90;83.30;;;;;;5030135;28;20046;-59
2021/11/07 11:25:41;;;;;;;14.13;3.15;;;17.10;81.70;;;;;;5048714;28;20120;-59
2021/11/07 11:38:48;;;;;;;14.70;3.55;;;12.90;99.90;;;;;;5054714;28;20072;-58
2021/11/07 11:41:30;;;;;;;13.82;3.67;;;12.90;99.90;;;;;;5059243;28;20092;-58
2021/11/07 11:43:56;;;;;;;15.98;2.90;;;13.20;99.90;;;;;;5056074;28;20044;-59
2021/11/07 11:46:43;;;;;;;13.07;2.85;;;13.20;99.90;;;;;;5058813;28;20433;-58
2021/11/07 11:57:47;;;;;;;12.85;2.63;;;13.80;99.90;;;;;;5033425;28;20045;-57
2021/11/07 12:00:31;;;;;;;12.27;2.88;;;14.10;99.90;;;;;;5031589;28;20068;-60
2021/11/07 12:03:17;;;;;;;11.80;3.13;;;14.30;99.90;;;;;;5038342;28;20060;-57
2021/11/07 12:06:03;;;;;;;17.40;3.20;;;14.20;99.90;;;;;;5031177;28;20057;-57
2021/11/07 12:08:40;;;;;;;13.88;3.35;;;14.00;99.90;;;;;;5031286;28;20492;-57
2021/11/07 12:14:09;;;;;;;20.02;3.85;;;13.20;99.90;;;;;;5032818;28;20496;-58
2021/11/07 12:16:56;;;;;;;23.85;4.57;;;12.90;99.90;;;;;;5024805;28;20392;-58
2021/11/07 12:19:32;;;;;;;17.98;3.85;;;12.50;99.90;;;;;;5035760;28;20102;-57
2021/11/07 12:22:07;;;;;;;15.95;3.92;;;12.40;99.90;;;;;;5037856;28;20063;-57
2021/11/07 12:25:09;;;;;;;20.13;3.47;;;12.10;99.90;;;;;;5009194;28;20484;-57
2021/11/07 12:27:48;;;;;;;13.43;3.35;;;11.80;99.90;;;;;;4963097;28;20053;-57
2021/11/07 12:30:25;;;;;;;18.95;4.32;;;11.70;99.90;;;;;;4945179;28;20125;-57
2021/11/07 12:33:14;;;;;;;17.50;3.22;;;11.60;99.90;;;;;;4953368;28;20050;-58
2021/11/07 12:35:45;;;;;;;13.93;3.50;;;11.70;99.90;;;;;;4929182;28;20063;-57
2021/11/07 12:41:06;;;;;;;15.75;4.28;;;12.00;99.90;;;;;;4955734;28;20085;-58
2021/11/07 12:43:39;;;;;;;15.00;3.47;;;12.00;99.90;;;;;;4964532;28;20071;-58
2021/11/07 12:46:19;;;;;;;16.73;3.90;;;12.10;99.90;;;;;;4959389;28;20088;-58
2021/11/07 12:48:52;;;;;;;18.33;4.35;;;12.40;99.90;;;;;;4984794;28;20498;-61
2021/11/07 12:51:33;;;;;;;18.45;4.07;;;13.10;99.90;;;;;;4960241;28;20047;-60
2021/11/07 12:54:02;;;;;;;17.02;3.63;;;14.40;99.90;;;;;;4945089;28;20543;-60
2021/11/07 12:56:36;;;;;;;17.80;3.85;;;14.80;99.90;;;;;;4952822;28;20163;-60
2021/11/07 12:59:09;;;;;;;14.23;3.30;;;14.40;99.90;;;;;;4964324;28;20046;-60
2021/11/07 13:02:04;;;;;;;14.65;3.58;;;14.00;99.90;;;;;;4964469;28;20046;-61
2021/11/07 13:04:45;;;;;;;20.00;4.13;;;14.00;99.90;;;;;;5003677;28;20107;-60
2021/11/07 13:07:18;;;;;;;18.42;4.78;;;13.80;99.90;;;;;;5051972;28;20033;-59
2021/11/07 13:09:55;;;;;;;21.02;4.15;;;13.80;99.90;;;;;;5049218;28;20116;-59
2021/11/07 13:12:27;;;;;;;22.20;4.97;;;14.30;99.90;;;;;;5063955;28;20079;-59
2021/11/07 13:23:48;;;;;;;14.00;3.90;;;13.70;99.90;;;;;;5049874;28;20045;-57
2021/11/07 13:26:52;;;;;;;12.38;2.95;;;13.80;99.90;;;;;;5049543;28;20052;-58
2021/11/07 13:34:34;;;;;;;14.15;3.53;;;12.70;99.90;;;;;;5049064;28;20041;-57
2021/11/07 13:37:03;;;;;;;15.63;3.92;;;12.50;99.90;;;;;;5049616;28;20052;-60
2021/11/07 13:39:33;;;;;;;15.35;4.13;;;13.20;99.90;;;;;;5049839;28;20052;-59
2021/11/07 13:42:14;;;;;;;12.98;3.28;;;13.80;99.90;;;;;;5029661;28;20485;-59
2021/11/07 13:44:43;;;;;;;21.80;4.53;;;13.40;99.90;;;;;;5030197;28;20081;-59
2021/11/07 13:47:09;;;;;;;16.58;3.78;;;13.10;99.90;;;;;;5029830;28;20427;-60
2021/11/07 13:49:49;;;;;;;14.25;3.72;;;12.80;99.90;;;;;;5057033;28;20090;-60
2021/11/07 13:52:16;;;;;;;15.23;2.85;;;12.70;99.90;;;;;;5059935;28;20120;-60
2021/11/07 13:54:42;;;;;;;9.50;2.47;;;13.00;99.90;;;;;;5048776;28;20037;-59
2021/11/07 13:57:09;;;;;;;15.02;2.97;;;12.80;99.90;;;;;;5050331;28;20049;-59
2021/11/07 13:59:43;;;;;;;8.70;2.33;;;13.60;99.90;;;;;;5056253;28;20080;-60
2021/11/07 14:02:22;;;;;;;11.43;2.03;;;14.10;99.90;;;;;;5058071;28;20500;-60
2021/11/07 14:04:54;;;;;;;10.27;2.08;;;14.30;91.90;;;;;;5066020;28;20051;-59
2021/11/07 14:07:26;;;;;;;12.57;2.63;;;14.80;92.10;;;;;;5047743;28;20048;-61
2021/11/07 14:09:54;;;;;;;9.77;2.15;;;14.40;87.00;;;;;;5028577;28;20123;-57
2021/11/07 14:12:27;;;;;;;14.20;2.67;;;13.90;94.50;;;;;;5037471;28;20048;-57
2021/11/07 14:15:31;;;;;;;17.13;3.10;;;13.60;95.50;;;;;;5036736;28;20045;-58
2021/11/07 14:18:25;;;;;;;13.93;3.35;;;13.20;99.90;;;;;;5024815;28;20041;-58
2021/11/07 14:20:55;;;;;;;18.15;3.72;;;13.20;99.90;;;;;;5038953;28;20059;-57
2021/11/07 14:23:34;;;;;;;12.40;3.58;;;13.00;99.90;;;;;;5042364;28;20044;-57
2021/11/07 14:26:26;;;;;;;13.27;3.63;;;12.90;99.90;;;;;;5040299;28;20436;-59
2021/11/07 14:29:20;;;;;;;13.07;3.63;;;13.40;99.90;;;;;;5031342;28;20045;-57
2021/11/07 14:32:06;;;;;;;21.33;4.25;;;13.50;99.90;;;;;;5031132;28;20397;-58
2021/11/07 14:34:59;;;;;;;16.65;3.83;;;13.60;99.90;;;;;;5029750;28;20041;-57
2021/11/07 14:40:23;;;;;;;21.88;3.78;;;13.00;99.90;;;;;;5047974;28;20053;-59
2021/11/07 14:53:55;;;;;;;15.23;3.63;;;11.10;99.90;;;;;;5028015;28;20057;-58
2021/11/07 14:59:44;;;;;;;20.00;3.53;;;10.40;99.90;;;;;;5018459;28;20126;-58
2021/11/07 15:02:51;;;;;;;13.82;3.88;;;10.20;99.90;;;;;;5044538;28;20048;-57
2021/11/07 15:08:21;;;;;;;17.80;3.42;;;10.00;99.90;;;;;;5011308;28;20050;-58
2021/11/07 15:21:47;;;;;;;12.80;2.90;;;9.80;99.90;;;;;;5043101;28;20037;-57
2021/11/07 15:24:27;;;;;;;10.45;2.53;;;9.80;99.90;;;;;;5048610;28;20049;-59
2021/11/07 15:26:57;;;;;;;10.80;2.55;;;9.70;99.90;;;;;;5049805;28;20051;-60
2021/11/07 15:29:29;;;;;;;14.02;3.22;;;9.70;99.90;;;;;;5050770;28;20132;-60
2021/11/07 15:32:11;;;;;;;11.27;2.53;;;9.70;99.90;;;;;;5043544;28;20111;-61
2021/11/07 15:34:41;;;;;;;10.93;2.15;;;9.70;99.90;;;;;;5033325;28;20072;-61
2021/11/07 15:37:12;;;;;;;11.48;2.95;;;9.70;99.90;;;;;;5049386;28;20076;-61
2021/11/07 15:39:47;;;;;;;16.45;3.50;;;9.60;99.90;;;;;;5049218;28;20557;-61
2021/11/07 15:42:16;;;;;;;12.90;2.33;;;9.60;99.90;;;;;;5048295;28;20043;-61
2021/11/07 15:44:57;;;;;;;9.68;2.70;;;9.60;99.90;;;;;;5030908;28;20099;-61
2021/11/07 15:47:31;;;;;;;14.10;2.75;;;9.60;99.90;;;;;;5029157;28;20053;-58
2021/11/07 15:50:09;;;;;;;10.70;2.85;;;9.50;99.90;;;;;;5030288;28;20045;-58
2021/11/07 15:55:37;;;;;;;14.82;3.45;;;9.50;99.90;;;;;;5029955;28;20488;-59